Bemidji Regional Airport
KBJI : now visible

Airfield :











YOU CAN JOIN US ON...

 
LOGIN :

Register | Disclaimer

   EN    FR    IT 

 









Legend :    VFR   Marginal VFR   IFR   Intensive IFR   Very Intensive IFR
Visi :
Ceiling :
>= 8 km
>= 3000ft
5 to 8 km
1000 to 3000 ft
1500m to 5 km
500 to 1000 ft
800 to 1500m
200 to 500 ft
< 800m
< 200 ft
Symbols :   Thunderstorms  Fog  Heavy snow  Heavy precipitations  Wind > 20 kt







- Airport Elevation : 1391 ft


KBJI - Bemidji Regional

CURRENT METAR :
  • 210459Z AUTO 16010KT 10SM SCT017 23/21 A2980 RMK AO2 T02290206

EXPIRED METARs :
  • 210436Z AUTO 15011KT 10SM BKN015 BKN019 23/21 A2980 RMK AO2 LTG DSNT NW T02260207
  • 210415Z AUTO 15013G18KT 10SM OVC015 23/21 A2979 RMK AO2 T02250206
  • 210355Z AUTO 14014KT 10SM BKN015 BKN021 23/21 A2980 RMK AO2 LTG DSNT N AND NW T02250206
  • 210338Z AUTO 14013G18KT 10SM BKN017 23/21 A2981 RMK AO2 LTG DSNT N AND NW T02250205
  • 210319Z AUTO 14014G20KT 10SM BKN017 23/21 A2980 RMK AO2 LTG DSNT N AND NW T02250205
  • 210256Z AUTO 14012KT 10SM BKN017 23/20 A2983 RMK AO2 T02250203
  • 210235Z AUTO 14012KT 10SM BKN015 BKN021 22/20 A2981 RMK AO2 LTG DSNT W THRU N T02210202
  • 210217Z AUTO 13012G16KT 10SM SCT015 SCT029 22/20 A2981 RMK AO2 LTG DSNT NW T02200201

TAF KBJI
Valid from the 21 at 00:00 until the 22 at 00:00 UTC


202347Z 2100/2124 14015KT P6SM SCT028 BKN100
FM210300 15015KT P6SM VCTS SCT025CB BKN080
FM210700 16015KT P6SM TSRA BKN035CB
TEMPO 2107/2110 4SM TSRA BR OVC025CB
FM211200 18014KT 6SM SHRA VCTS OVC013CB
FM211700 19013G21KT P6SM VCSH BKN009
FM212200 21014KT P6SM SCT045
No reported NOTAMs for that airfield.



MET'MAP, your aeronautical weather chart ! - Copyright ORBIFLY December 2007 - Disclaimer

ORBIFLY MET'MAP TEAM :

Programming & Development : Alexandra Zaïnal
Concept & Development : Baudouin d'Aumeries
Co-Development & Prog : Marc-Olivier Méhu
Technical & hardware support : Manuel Goepfert

Contact : metmap@orbifly.com




SOURCES & CREDITS :

   NOAA       Earth
Advisory